createdAt,value
2018-07-31T00:02:10.792Z,99.90
2018-07-31T00:06:22.484Z,99.90
2018-07-31T00:10:25.353Z,99.90
2018-07-31T00:14:28.234Z,99.90
2018-07-31T00:18:30.955Z,99.90
2018-07-31T00:22:33.859Z,99.90
2018-07-31T00:26:36.611Z,99.90
2018-07-31T00:30:39.335Z,99.90
2018-07-31T00:34:42.222Z,99.90
2018-07-31T00:38:45.003Z,99.90
2018-07-31T00:42:47.907Z,99.90
2018-07-31T00:46:50.828Z,99.90
2018-07-31T00:50:53.601Z,99.90
2018-07-31T00:54:56.286Z,99.90
2018-07-31T00:58:59.068Z,99.90
2018-07-31T01:03:01.748Z,99.90
2018-07-31T01:07:05.025Z,99.90
2018-07-31T01:11:07.785Z,99.90
2018-07-31T01:15:10.544Z,99.90
2018-07-31T01:19:13.363Z,99.90
2018-07-31T01:23:16.130Z,99.90
2018-07-31T01:27:18.870Z,99.90
2018-07-31T01:31:21.674Z,99.90
2018-07-31T01:35:24.470Z,99.90
2018-07-31T01:39:27.262Z,99.90
2018-07-31T01:43:30.022Z,99.90
2018-07-31T01:47:32.786Z,99.90
2018-07-31T01:51:35.609Z,99.90
2018-07-31T01:55:38.374Z,99.90
2018-07-31T01:59:41.252Z,99.90
2018-07-31T02:03:43.992Z,99.90
2018-07-31T02:07:46.773Z,99.90
2018-07-31T02:11:49.666Z,99.90
2018-07-31T02:15:52.458Z,99.90
2018-07-31T02:19:55.341Z,99.90
2018-07-31T02:23:58.140Z,99.90
2018-07-31T02:28:01.047Z,99.90
2018-07-31T02:32:03.927Z,99.90
2018-07-31T02:36:06.726Z,99.90
2018-07-31T02:40:09.710Z,99.90
2018-07-31T02:44:12.486Z,99.90
2018-07-31T02:48:15.289Z,99.90
2018-07-31T02:56:20.834Z,99.90
2018-07-31T03:00:23.716Z,99.90
2018-07-31T03:04:26.455Z,99.90
2018-07-31T03:08:29.244Z,99.90
2018-07-31T03:12:32.059Z,99.90
2018-07-31T03:16:34.858Z,99.90
2018-07-31T03:20:37.662Z,99.90
2018-07-31T03:24:40.520Z,99.90
2018-07-31T03:28:43.334Z,99.90
2018-07-31T03:32:46.220Z,99.90
2018-07-31T03:36:48.986Z,99.90
2018-07-31T03:40:51.839Z,99.90
2018-07-31T03:44:54.603Z,99.90
2018-07-31T03:48:57.460Z,99.90
2018-07-31T03:53:00.249Z,99.90
2018-07-31T03:57:03.191Z,99.90
2018-07-31T04:01:06.085Z,99.90
2018-07-31T04:05:08.938Z,99.90
2018-07-31T04:09:12.717Z,99.90
2018-07-31T04:13:15.450Z,99.90
2018-07-31T04:17:18.252Z,99.90
2018-07-31T04:21:21.055Z,99.90
2018-07-31T04:25:24.510Z,99.90
2018-07-31T04:33:30.025Z,99.90
2018-07-31T04:37:32.849Z,99.90
2018-07-31T04:41:35.564Z,99.90
2018-07-31T04:45:38.348Z,99.90
2018-07-31T04:49:41.066Z,99.90
2018-07-31T04:53:43.895Z,99.90
2018-07-31T04:57:47.200Z,99.90
2018-07-31T05:01:50.016Z,99.90
2018-07-31T05:05:52.748Z,99.90
2018-07-31T05:09:55.584Z,99.90
2018-07-31T05:13:58.413Z,99.90
2018-07-31T05:18:01.174Z,99.90
2018-07-31T05:22:03.956Z,99.90
2018-07-31T05:26:06.758Z,99.90
2018-07-31T05:30:10.390Z,99.90
2018-07-31T05:34:14.091Z,99.90
2018-07-31T05:38:16.968Z,99.90
2018-07-31T05:42:19.742Z,99.90
2018-07-31T05:46:22.470Z,99.90
2018-07-31T05:50:25.289Z,99.90
2018-07-31T05:54:28.051Z,99.90
2018-07-31T05:58:30.868Z,99.90
2018-07-31T06:02:33.731Z,99.90
2018-07-31T06:06:36.634Z,99.90
2018-07-31T06:10:39.483Z,99.90
2018-07-31T06:14:42.192Z,99.90
2018-07-31T06:18:44.963Z,99.90
2018-07-31T06:22:47.995Z,99.90
2018-07-31T06:26:50.734Z,99.90
2018-07-31T06:30:53.508Z,99.90
2018-07-31T06:34:56.275Z,99.90
2018-07-31T06:38:59.060Z,99.90
2018-07-31T06:47:04.812Z,99.90
2018-07-31T06:51:08.204Z,99.90
2018-07-31T06:55:11.019Z,99.90
2018-07-31T06:59:13.838Z,99.90
2018-07-31T07:07:19.410Z,99.90
2018-07-31T07:11:22.186Z,99.90
2018-07-31T07:15:24.959Z,99.90
2018-07-31T07:19:27.681Z,99.90
2018-07-31T07:23:30.422Z,99.90
2018-07-31T07:27:33.306Z,99.90
2018-07-31T07:31:36.043Z,99.90
2018-07-31T07:35:38.850Z,99.90
2018-07-31T07:39:41.610Z,99.90
2018-07-31T07:43:44.502Z,99.90
2018-07-31T07:47:47.238Z,99.90
2018-07-31T07:51:49.996Z,99.90
2018-07-31T07:55:52.717Z,99.90
2018-07-31T07:59:55.446Z,99.90
2018-07-31T08:03:58.336Z,99.90
2018-07-31T08:08:02.611Z,99.90
2018-07-31T08:12:05.366Z,99.90
2018-07-31T08:16:08.103Z,99.90
2018-07-31T08:20:11.043Z,99.90
2018-07-31T08:24:13.873Z,99.80
2018-07-31T08:28:16.685Z,99.40
2018-07-31T08:32:19.569Z,99.90
2018-07-31T08:36:22.430Z,99.90
2018-07-31T08:40:25.187Z,99.70
2018-07-31T08:44:27.920Z,99.90
2018-07-31T08:48:30.686Z,98.80
2018-07-31T08:52:33.479Z,98.10
2018-07-31T08:56:36.305Z,99.00
2018-07-31T09:00:39.120Z,98.00
2018-07-31T09:04:41.853Z,96.60
2018-07-31T09:08:44.655Z,95.70
2018-07-31T09:12:47.406Z,96.20
2018-07-31T09:16:50.223Z,94.40
2018-07-31T09:20:53.125Z,93.60
2018-07-31T09:24:55.888Z,93.10
2018-07-31T09:28:58.601Z,94.40
2018-07-31T09:33:06.363Z,95.10
2018-07-31T09:37:09.065Z,94.60
2018-07-31T09:41:11.811Z,93.90
2018-07-31T09:45:14.590Z,93.20
2018-07-31T09:49:17.485Z,93.30
2018-07-31T09:53:20.390Z,92.60
2018-07-31T09:57:23.164Z,94.30
2018-07-31T10:01:25.943Z,93.70
2018-07-31T10:05:28.697Z,93.80
2018-07-31T10:09:31.489Z,92.40
2018-07-31T10:13:34.260Z,93.70
2018-07-31T10:17:37.009Z,93.50
2018-07-31T10:21:39.819Z,93.90
2018-07-31T10:25:42.604Z,89.20
2018-07-31T10:29:45.420Z,85.50
2018-07-31T10:33:48.222Z,87.70
2018-07-31T10:37:51.125Z,87.50
2018-07-31T10:41:53.998Z,89.80
2018-07-31T10:45:56.876Z,82.50
2018-07-31T10:49:59.698Z,81.70
2018-07-31T10:54:02.632Z,79.40
2018-07-31T10:58:05.599Z,83.30
2018-07-31T11:02:08.455Z,85.30
2018-07-31T11:06:11.330Z,87.30
2018-07-31T11:10:14.170Z,89.90
2018-07-31T11:14:16.903Z,90.10
2018-07-31T11:22:22.411Z,91.20
2018-07-31T11:26:25.179Z,91.10
2018-07-31T11:30:28.179Z,90.90
2018-07-31T11:34:30.972Z,90.20
2018-07-31T11:38:33.747Z,90.30
2018-07-31T11:42:36.426Z,91.60
2018-07-31T11:46:39.243Z,90.30
2018-07-31T11:50:42.758Z,87.00
2018-07-31T11:54:45.511Z,80.50
2018-07-31T11:58:48.235Z,75.90
2018-07-31T12:02:51.092Z,76.60
2018-07-31T12:06:53.949Z,72.90
2018-07-31T12:10:56.757Z,72.60
2018-07-31T12:14:59.485Z,69.40
2018-07-31T12:19:02.318Z,64.60
2018-07-31T12:23:05.072Z,64.70
2018-07-31T12:27:07.893Z,65.30
2018-07-31T12:31:10.609Z,63.00
2018-07-31T12:35:13.356Z,63.80
2018-07-31T12:39:16.194Z,69.20
2018-07-31T12:43:18.886Z,73.40
2018-07-31T12:47:21.604Z,71.70
2018-07-31T12:51:24.414Z,72.60
2018-07-31T12:55:27.220Z,74.40
2018-07-31T12:59:29.965Z,75.20
2018-07-31T13:03:32.845Z,75.40
2018-07-31T13:07:35.671Z,74.30
2018-07-31T13:11:39.174Z,74.50
2018-07-31T13:15:41.996Z,75.80
2018-07-31T13:19:44.790Z,71.30
2018-07-31T13:23:47.639Z,70.40
2018-07-31T13:27:50.461Z,72.10
2018-07-31T13:35:55.876Z,72.10
2018-07-31T13:39:58.613Z,73.90
2018-07-31T13:44:01.533Z,75.40
2018-07-31T13:48:04.128Z,73.80
2018-07-31T13:52:06.907Z,77.40
2018-07-31T13:56:09.683Z,79.80
2018-07-31T14:00:12.441Z,81.10
2018-07-31T14:04:15.263Z,80.50
2018-07-31T14:08:18.095Z,82.50
2018-07-31T14:12:20.959Z,81.60
2018-07-31T14:16:23.858Z,82.20
2018-07-31T14:20:26.555Z,81.70
2018-07-31T14:24:29.479Z,83.60
2018-07-31T14:28:32.243Z,84.20
2018-07-31T14:32:35.319Z,83.00
2018-07-31T14:36:38.195Z,83.90
2018-07-31T14:40:40.903Z,82.80
2018-07-31T14:44:43.756Z,84.60
2018-07-31T14:48:46.562Z,83.10
2018-07-31T14:52:49.427Z,85.70
2018-07-31T14:56:52.281Z,85.30
2018-07-31T15:00:55.082Z,83.50
2018-07-31T15:04:57.831Z,86.40
2018-07-31T15:09:00.566Z,89.30
2018-07-31T15:13:03.589Z,90.50
2018-07-31T15:17:06.481Z,90.50
2018-07-31T15:21:09.307Z,87.80
2018-07-31T15:25:12.052Z,86.70
2018-07-31T15:29:14.732Z,86.60
2018-07-31T15:33:17.552Z,86.70
2018-07-31T15:37:20.371Z,86.80
2018-07-31T15:41:23.103Z,87.40
2018-07-31T15:45:25.840Z,87.30
2018-07-31T15:49:28.705Z,87.40
2018-07-31T15:53:31.422Z,87.80
2018-07-31T15:57:34.143Z,89.70
2018-07-31T16:01:36.975Z,90.30
2018-07-31T16:05:39.850Z,90.60
2018-07-31T16:09:42.626Z,90.50
2018-07-31T16:13:45.382Z,90.40
2018-07-31T16:17:48.131Z,90.20
2018-07-31T16:21:51.186Z,88.50
2018-07-31T16:25:54.213Z,88.50
2018-07-31T16:29:57.083Z,88.50
2018-07-31T16:33:59.844Z,86.90
2018-07-31T16:38:02.646Z,84.50
2018-07-31T16:42:05.653Z,85.70
2018-07-31T16:46:08.581Z,84.50
2018-07-31T16:50:11.436Z,83.90
2018-07-31T16:54:14.192Z,90.10
2018-07-31T16:58:17.028Z,92.60
2018-07-31T17:02:19.874Z,93.30
2018-07-31T17:06:22.716Z,94.00
2018-07-31T17:10:25.550Z,94.60
2018-07-31T17:14:28.417Z,96.20
2018-07-31T17:18:31.251Z,97.50
2018-07-31T17:22:34.221Z,98.20
2018-07-31T17:26:36.957Z,98.40
2018-07-31T17:30:42.872Z,98.70
2018-07-31T17:34:45.680Z,98.80
2018-07-31T17:38:48.549Z,99.00
2018-07-31T17:42:51.572Z,98.60
2018-07-31T17:46:54.527Z,98.40
2018-07-31T17:50:57.802Z,98.60
2018-07-31T17:55:00.602Z,98.90
2018-07-31T17:59:03.414Z,99.30
2018-07-31T18:03:06.195Z,99.20
2018-07-31T18:07:08.999Z,99.10
2018-07-31T18:11:11.908Z,99.10
2018-07-31T18:15:14.801Z,99.00
2018-07-31T18:19:17.551Z,99.40
2018-07-31T18:23:20.577Z,98.90
2018-07-31T18:27:23.585Z,98.90
2018-07-31T18:31:29.407Z,98.90
2018-07-31T18:35:32.373Z,99.20
2018-07-31T18:39:35.248Z,99.20
2018-07-31T18:43:38.201Z,99.30
2018-07-31T18:47:41.172Z,99.40
2018-07-31T18:51:44.830Z,99.30
2018-07-31T18:55:47.661Z,99.00
2018-07-31T18:59:50.491Z,98.70
2018-07-31T19:03:53.288Z,98.60
2018-07-31T19:07:56.138Z,98.60
2018-07-31T19:11:58.942Z,98.90
2018-07-31T19:16:01.741Z,99.00
2018-07-31T19:20:04.732Z,99.20
2018-07-31T19:24:07.520Z,99.50
2018-07-31T19:28:10.407Z,99.40
2018-07-31T19:32:13.116Z,99.30
2018-07-31T19:36:15.934Z,99.50
2018-07-31T19:40:18.723Z,99.60
2018-07-31T19:44:21.604Z,99.60
2018-07-31T19:48:24.418Z,99.60
2018-07-31T19:52:27.137Z,99.80
2018-07-31T19:56:29.893Z,99.90
2018-07-31T20:00:32.685Z,99.90
2018-07-31T20:04:35.437Z,99.80
2018-07-31T20:08:38.618Z,99.90
2018-07-31T20:12:41.359Z,99.90
2018-07-31T20:16:44.188Z,99.90
2018-07-31T20:20:47.033Z,99.90
2018-07-31T20:24:49.904Z,99.90
2018-07-31T20:28:52.743Z,99.90
2018-07-31T20:32:55.488Z,99.90
2018-07-31T20:36:58.451Z,99.90
2018-07-31T20:41:01.430Z,99.90
2018-07-31T20:45:04.529Z,99.90
2018-07-31T20:49:07.503Z,99.90
2018-07-31T20:53:10.490Z,99.90
2018-07-31T20:57:13.573Z,99.90
2018-07-31T21:01:16.367Z,99.90
2018-07-31T21:05:19.263Z,99.90
2018-07-31T21:09:22.072Z,99.90
2018-07-31T21:13:24.914Z,99.90
2018-07-31T21:17:27.800Z,99.90
2018-07-31T21:21:30.777Z,99.90
2018-07-31T21:25:33.605Z,99.90
2018-07-31T21:29:36.420Z,99.90
2018-07-31T21:33:39.267Z,99.90
2018-07-31T21:37:42.078Z,99.90
2018-07-31T21:41:44.933Z,99.90
2018-07-31T21:45:47.801Z,99.90
2018-07-31T21:49:50.632Z,99.90
2018-07-31T21:53:53.518Z,99.90
2018-07-31T21:57:56.585Z,99.90
2018-07-31T22:01:59.557Z,99.90
2018-07-31T22:06:02.924Z,99.90
2018-07-31T22:10:05.843Z,99.90
2018-07-31T22:14:12.281Z,99.90
2018-07-31T22:18:15.242Z,99.90
2018-07-31T22:22:19.967Z,99.90
2018-07-31T22:26:26.178Z,99.90
2018-07-31T22:30:29.236Z,99.90
2018-07-31T22:34:32.224Z,99.90
2018-07-31T22:38:35.210Z,99.90
2018-07-31T22:42:38.381Z,99.90
2018-07-31T22:46:41.392Z,99.90
2018-07-31T22:50:44.254Z,99.90
2018-07-31T22:54:47.267Z,99.90
2018-07-31T22:58:50.134Z,99.90
2018-07-31T23:02:52.974Z,99.90
2018-07-31T23:06:55.897Z,99.90
2018-07-31T23:10:58.781Z,99.90
2018-07-31T23:15:02.538Z,99.90
2018-07-31T23:19:05.738Z,99.90
2018-07-31T23:23:08.569Z,99.90
2018-07-31T23:27:11.360Z,99.90
2018-07-31T23:31:15.036Z,99.90
2018-07-31T23:35:17.876Z,99.90
2018-07-31T23:39:20.665Z,99.90
2018-07-31T23:47:27.237Z,99.90
2018-07-31T23:51:30.023Z,99.90
2018-07-31T23:55:32.836Z,99.90
2018-07-31T23:59:35.574Z,99.90
